Time;durP1;ratioP1;P1;durP2;ratioP2;P2;SDS_P1;SDS_P2;PMS_P1;PMS_P2;Temp;Humidity;BMP_temperature;BMP_pressure;BME280_temperature;BME280_humidity;BME280_pressure;Samples;Min_cycle;Max_cycle;Signal;HPM_P1;HPM_P2
2022/05/25 00:00:36;;;;;;;4.40;0.70;;;;;;;15.96;63.96;100908.00;4982236;28;20058;-71
2022/05/25 00:03:05;;;;;;;2.05;0.90;;;;;;;16.03;63.59;100908.25;4982269;28;20053;-70
2022/05/25 00:05:33;;;;;;;2.70;1.10;;;;;;;16.08;63.59;100904.41;4972302;28;20053;-71
2022/05/25 00:08:01;;;;;;;2.53;0.75;;;;;;;15.93;63.96;100905.91;4990892;28;20522;-72
2022/05/25 00:10:28;;;;;;;4.43;1.08;;;;;;;15.89;63.09;100904.97;4983697;28;20061;-70
2022/05/25 00:12:56;;;;;;;5.05;0.80;;;;;;;15.58;62.27;100897.16;4979689;28;20043;-70
2022/05/25 00:15:23;;;;;;;2.58;0.80;;;;;;;15.38;61.95;100897.97;4979164;28;20054;-71
2022/05/25 00:17:51;;;;;;;4.60;1.02;;;;;;;15.27;63.14;100905.06;5004114;28;20042;-70
2022/05/25 00:20:19;;;;;;;1.80;0.80;;;;;;;15.63;63.80;100896.94;4962191;28;20046;-71
2022/05/25 00:22:53;;;;;;;2.75;1.00;;;;;;;15.62;64.13;100900.06;4978773;28;20074;-69
2022/05/25 00:25:25;;;;;;;3.10;1.10;;;;;;;15.84;64.35;100896.03;4991990;28;20050;-71
2022/05/25 00:27:52;;;;;;;5.18;1.30;;;;;;;15.96;64.67;100896.88;4986578;28;20050;-70
2022/05/25 00:30:19;;;;;;;2.13;0.80;;;;;;;15.62;62.91;100895.28;4991558;28;20050;-71
2022/05/25 00:32:47;;;;;;;2.47;0.80;;;;;;;15.59;63.41;100903.50;4977057;28;20058;-70
2022/05/25 00:35:17;;;;;;;2.70;1.00;;;;;;;15.11;63.12;100906.88;4977050;28;20047;-71
2022/05/25 00:37:45;;;;;;;3.28;0.73;;;;;;;15.19;64.02;100905.97;4991812;28;20069;-69
2022/05/25 00:40:18;;;;;;;2.85;0.90;;;;;;;15.84;65.58;100907.16;4977072;28;20144;-70
2022/05/25 00:42:46;;;;;;;2.92;1.08;;;;;;;15.63;62.45;100905.25;4985814;28;20061;-69
2022/05/25 00:45:16;;;;;;;6.82;1.10;;;;;;;15.66;65.09;100912.91;4977312;28;20046;-69
2022/05/25 00:47:46;;;;;;;2.30;0.75;;;;;;;15.57;64.95;100917.72;4981890;28;20058;-69
2022/05/25 00:50:14;;;;;;;;;;;;;;;15.34;64.08;100918.41;4987453;28;20046;-70
2022/05/25 00:52:45;;;;;;;4.35;0.77;;;;;;;15.62;63.65;100919.50;4992099;28;19929;-69
2022/05/25 00:55:18;;;;;;;4.80;1.00;;;;;;;15.25;64.89;100926.81;4977028;28;20054;-68
2022/05/25 00:57:48;;;;;;;30.88;20.73;;;;;;;14.97;63.73;100920.19;4976882;28;20230;-70
2022/05/25 01:00:21;;;;;;;37.17;24.10;;;;;;;15.45;66.74;100925.19;4962699;28;20206;-70
2022/05/25 01:02:59;;;;;;;33.78;23.17;;;;;;;15.23;63.48;100922.75;4978630;28;20623;-68
2022/05/25 01:05:29;;;;;;;17.60;12.00;;;;;;;15.17;63.49;100927.69;4993339;28;20050;-69
2022/05/25 01:08:35;;;;;;;;;;;;;;;14.84;64.02;100924.03;4978741;28;20089;-69
2022/05/25 01:11:20;;;;;;;2.67;1.00;;;;;;;14.70;65.93;100934.56;4918399;29;19930;-69
2022/05/25 01:14:26;;;;;;;2.20;1.00;;;;;;;14.78;66.80;100936.47;4898986;29;20056;-69
2022/05/25 01:17:01;;;;;;;3.08;0.90;;;;;;;14.68;67.32;100940.44;4953420;28;20070;-69
2022/05/25 01:19:49;;;;;;;2.22;0.80;;;;;;;15.20;68.95;100942.88;4979257;28;20042;-69
2022/05/25 01:22:55;;;;;;;3.88;0.88;;;;;;;15.10;66.01;100935.75;5005100;28;20050;-70
2022/05/25 01:25:25;;;;;;;3.05;0.80;;;;;;;15.19;67.52;100939.25;4965238;28;20058;-70
2022/05/25 01:27:52;;;;;;;;;;;;;;;15.04;66.63;100950.97;4977796;28;20059;-69
2022/05/25 01:30:41;;;;;;;2.92;0.95;;;;;;;14.54;66.64;100950.13;4998637;28;19929;-71
2022/05/25 01:33:18;;;;;;;2.45;1.00;;;;;;;14.17;67.76;100953.72;4959307;28;20062;-70
2022/05/25 01:36:02;;;;;;;7.72;1.40;;;;;;;14.02;68.69;100951.47;4976249;28;20508;-70
2022/05/25 01:38:47;;;;;;;4.15;1.00;;;;;;;13.75;70.40;100951.88;4990755;28;20426;-69
2022/05/25 01:41:22;;;;;;;2.38;1.02;;;;;;;13.58;70.91;100961.03;4977015;28;20054;-70
2022/05/25 01:44:03;;;;;;;4.90;1.08;;;;;;;13.47;71.46;100963.31;4987151;28;20061;-70
2022/05/25 01:46:34;;;;;;;5.03;1.15;;;;;;;14.25;72.75;100964.75;4960110;28;20047;-70
2022/05/25 01:49:05;;;;;;;5.32;1.15;;;;;;;13.91;71.57;100964.88;4959605;28;20065;-70
2022/05/25 01:51:40;;;;;;;3.58;1.08;;;;;;;13.96;71.97;100961.94;4988409;28;20610;-70
2022/05/25 01:54:11;;;;;;;6.70;1.02;;;;;;;13.83;71.05;100965.69;4977382;28;20425;-69
2022/05/25 01:56:40;;;;;;;5.40;0.90;;;;;;;13.83;71.07;100970.41;4959907;28;20142;-69
2022/05/25 01:59:09;;;;;;;3.35;1.10;;;;;;;13.82;70.91;100974.34;4975106;28;20046;-70
2022/05/25 02:01:49;;;;;;;6.28;1.00;;;;;;;14.43;73.38;100971.06;4973122;28;20053;-70
2022/05/25 02:04:19;;;;;;;6.00;1.17;;;;;;;14.30;70.93;100967.38;4978539;28;20059;-69
2022/05/25 02:06:47;;;;;;;;;;;;;;;14.42;71.53;100973.03;4959999;28;20446;-71
2022/05/25 02:09:28;;;;;;;2.38;0.90;;;;;;;14.14;72.05;100979.31;4976130;28;20393;-71
2022/05/25 02:12:12;;;;;;;3.90;0.85;;;;;;;14.53;71.20;100971.53;4982468;28;20059;-70
2022/05/25 02:14:55;;;;;;;3.65;1.25;;;;;;;14.19;69.87;100973.59;4959500;28;20061;-66
2022/05/25 02:17:48;;;;;;;4.43;1.10;;;;;;;14.25;70.56;100967.53;4976755;28;20061;-66
2022/05/25 02:20:28;;;;;;;2.33;0.98;;;;;;;14.26;71.96;100974.72;4946134;28;20059;-67
2022/05/25 02:23:30;;;;;;;3.92;0.90;;;;;;;14.38;72.65;100979.56;4991602;28;20399;-66
2022/05/25 02:26:02;;;;;;;2.45;1.00;;;;;;;14.53;71.00;100979.00;4967384;28;20050;-66
2022/05/25 02:28:34;;;;;;;2.25;1.00;;;;;;;14.26;69.92;100987.78;4959213;28;20061;-66
2022/05/25 02:31:03;;;;;;;3.75;1.10;;;;;;;14.38;72.26;100982.34;4989759;28;20058;-67
2022/05/25 02:33:34;;;;;;;2.35;0.85;;;;;;;14.77;71.24;100981.19;5003995;28;20522;-66
2022/05/25 02:36:02;;;;;;;4.18;0.90;;;;;;;15.08;70.00;100981.63;4975876;28;20047;-66
2022/05/25 02:38:29;;;;;;;4.00;0.80;;;;;;;14.62;69.48;100979.78;5002638;28;20062;-66
2022/05/25 02:41:07;;;;;;;3.80;1.00;;;;;;;14.56;68.14;100990.25;4990608;28;20058;-66
2022/05/25 02:43:36;;;;;;;1.65;0.93;;;;;;;14.48;70.27;100993.88;4958488;28;20051;-67
2022/05/25 02:46:06;;;;;;;3.72;1.00;;;;;;;14.52;69.04;100996.81;4959174;28;20407;-65
2022/05/25 02:48:35;;;;;;;3.50;1.05;;;;;;;14.28;68.62;101005.69;4974871;28;20062;-67
2022/05/25 02:51:03;;;;;;;1.85;0.82;;;;;;;14.01;70.47;101000.53;4971992;28;20048;-67
2022/05/25 02:53:30;;;;;;;4.95;1.00;;;;;;;13.67;72.35;100999.78;4984690;28;20054;-66
2022/05/25 02:55:58;;;;;;;4.13;1.10;;;;;;;13.58;72.26;101006.09;4976721;28;20050;-66
2022/05/25 02:58:27;;;;;;;5.55;1.00;;;;;;;13.90;72.61;101007.53;4989560;28;20050;-67
2022/05/25 03:00:55;;;;;;;3.47;1.27;;;;;;;14.03;72.76;101008.50;4986287;28;20058;-65
2022/05/25 03:03:22;;;;;;;2.90;1.20;;;;;;;13.94;72.28;101002.97;4976476;28;20506;-66
2022/05/25 03:05:50;;;;;;;3.30;1.10;;;;;;;13.76;71.53;101006.91;4976030;28;20054;-66
2022/05/25 03:08:18;;;;;;;6.47;1.20;;;;;;;13.69;72.30;101019.59;4974702;28;20051;-66
2022/05/25 03:10:45;;;;;;;4.85;1.35;;;;;;;13.49;72.94;101021.09;4988000;28;20054;-66
2022/05/25 03:13:13;;;;;;;4.28;0.98;;;;;;;13.04;74.48;101031.59;4977156;28;20055;-65
2022/05/25 03:15:40;;;;;;;5.03;1.15;;;;;;;13.26;74.55;101025.97;4989503;28;20140;-66
2022/05/25 03:18:08;;;;;;;3.35;0.80;;;;;;;13.67;73.77;101030.22;4985358;28;20495;-66
2022/05/25 03:20:35;;;;;;;2.38;1.00;;;;;;;13.68;74.19;101031.84;4979313;28;20387;-66
2022/05/25 03:23:03;;;;;;;2.88;0.90;;;;;;;14.08;72.74;101033.25;4992568;28;20051;-67
2022/05/25 03:25:30;;;;;;;2.53;1.00;;;;;;;13.92;71.91;101035.72;4975897;28;20055;-67
2022/05/25 03:27:58;;;;;;;7.13;1.05;;;;;;;14.52;73.75;101041.94;4991512;28;20062;-66
2022/05/25 03:30:25;;;;;;;3.25;1.17;;;;;;;14.37;72.29;101042.50;4986681;28;20053;-67
2022/05/25 03:32:52;;;;;;;5.88;1.13;;;;;;;14.15;72.18;101048.25;4985615;28;20061;-67
2022/05/25 03:35:20;;;;;;;3.28;1.20;;;;;;;14.32;73.51;101048.22;4994998;28;20546;-66
2022/05/25 03:37:47;;;;;;;4.78;1.20;;;;;;;13.99;70.61;101049.06;4976535;28;20067;-68
2022/05/25 03:40:15;;;;;;;4.80;1.20;;;;;;;14.11;73.96;101063.06;4976949;28;20066;-65
2022/05/25 03:42:44;;;;;;;2.45;1.00;;;;;;;14.18;73.58;101063.38;4975335;28;20101;-67
2022/05/25 03:45:14;;;;;;;5.13;1.10;;;;;;;14.39;72.15;101079.00;4974909;28;20074;-66
2022/05/25 03:47:47;;;;;;;3.47;1.23;;;;;;;14.17;71.26;101072.84;4991658;28;20066;-66
2022/05/25 03:50:17;;;;;;;4.10;1.10;;;;;;;13.73;74.13;101075.97;4985164;28;20051;-67
2022/05/25 03:52:45;;;;;;;3.63;1.00;;;;;;;13.96;72.55;101092.09;4985581;28;20059;-65
2022/05/25 03:55:13;;;;;;;4.32;1.40;;;;;;;13.62;74.39;101091.25;4989451;28;20050;-66
2022/05/25 03:57:41;;;;;;;4.28;1.25;;;;;;;14.09;74.50;101091.09;4983240;28;20058;-68
2022/05/25 04:00:08;;;;;;;5.93;1.50;;;;;;;13.90;70.99;101092.56;4965374;28;20050;-67
2022/05/25 04:02:36;;;;;;;3.80;1.23;;;;;;;14.10;73.84;101092.72;4979713;28;20054;-66
2022/05/25 04:05:10;;;;;;;4.72;1.17;;;;;;;14.65;72.60;101087.25;4978317;28;20892;-66
2022/05/25 04:07:46;;;;;;;4.75;1.25;;;;;;;14.59;71.43;101088.59;4977623;28;20047;-65
2022/05/25 04:10:16;;;;;;;3.13;1.35;;;;;;;14.69;72.04;101093.75;4962648;28;20050;-65
2022/05/25 04:12:44;;;;;;;5.45;1.13;;;;;;;14.60;70.18;101087.44;4961856;28;20054;-70
2022/05/25 04:15:17;;;;;;;3.40;1.15;;;;;;;14.23;73.23;101091.72;4979493;28;20054;-69
2022/05/25 04:17:44;;;;;;;5.15;1.25;;;;;;;14.69;72.44;101091.00;4979118;28;20054;-69
2022/05/25 04:20:13;;;;;;;2.78;1.05;;;;;;;14.79;71.10;101090.63;4994976;28;20054;-70
2022/05/25 04:22:41;;;;;;;7.07;1.38;;;;;;;14.78;70.83;101093.72;4986381;28;20387;-70
2022/05/25 04:25:11;;;;;;;5.95;1.25;;;;;;;14.63;70.25;101097.84;4961497;28;20054;-71
2022/05/25 04:27:42;;;;;;;5.72;1.20;;;;;;;14.58;71.16;101092.47;4978888;28;20435;-72
2022/05/25 04:30:13;;;;;;;5.10;1.10;;;;;;;14.37;72.50;101099.88;4984326;28;20043;-69
2022/05/25 04:32:40;;;;;;;3.58;1.48;;;;;;;14.80;72.15;101100.59;4996802;28;20058;-70
2022/05/25 04:35:11;;;;;;;4.72;1.30;;;;;;;15.11;71.10;101101.09;4977791;28;20422;-70
2022/05/25 04:37:54;;;;;;;5.47;1.10;;;;;;;15.24;70.08;101105.56;4993217;28;20047;-69
2022/05/25 04:40:32;;;;;;;2.95;1.27;;;;;;;14.94;70.85;101112.25;4993996;28;20493;-70
2022/05/25 04:43:06;;;;;;;6.38;1.67;;;;;;;14.86;69.85;101117.81;4978532;28;20047;-69
2022/05/25 04:45:34;;;;;;;5.13;1.77;;;;;;;14.45;69.33;101116.47;4978608;28;20046;-70
2022/05/25 04:48:02;;;;;;;5.07;1.67;;;;;;;14.16;71.16;101126.59;4978680;28;20055;-69
2022/05/25 04:50:33;;;;;;;6.90;1.77;;;;;;;14.29;71.96;101128.44;4996804;28;20062;-71
2022/05/25 04:53:02;;;;;;;6.13;1.70;;;;;;;14.34;71.63;101125.47;4978465;28;20050;-70
2022/05/25 04:58:24;;;;;;;5.18;1.65;;;;;;;14.98;71.75;101132.63;4972012;28;20046;-69
2022/05/25 05:00:52;;;;;;;6.43;1.80;;;;;;;14.85;70.24;101141.16;4962357;28;20066;-72
2022/05/25 05:03:21;;;;;;;5.88;1.80;;;;;;;14.68;70.12;101134.53;4977200;28;20061;-69
2022/05/25 05:05:48;;;;;;;5.55;1.83;;;;;;;14.98;70.00;101135.41;4987210;28;20509;-70
2022/05/25 05:08:16;;;;;;;6.95;2.17;;;;;;;14.98;70.39;101137.34;4977971;28;20046;-69
2022/05/25 05:10:44;;;;;;;10.10;2.65;;;;;;;15.26;69.31;101147.69;4944457;28;20066;-70
2022/05/25 05:13:11;;;;;;;5.55;2.13;;;;;;;15.13;69.33;101147.91;4992685;28;20054;-70
2022/05/25 05:15:45;;;;;;;6.50;2.10;;;;;;;14.90;68.74;101150.13;4983041;28;20065;-70
2022/05/25 05:18:12;;;;;;;7.38;2.47;;;;;;;14.61;68.72;101156.41;4973907;28;20051;-70
2022/05/25 05:21:01;;;;;;;9.52;2.78;;;;;;;14.32;69.45;101158.25;4963917;28;20070;-71
2022/05/25 05:23:28;;;;;;;8.40;3.28;;;;;;;14.70;70.74;101158.34;4977840;28;20522;-72
2022/05/25 05:25:55;;;;;;;10.05;2.88;;;;;;;14.84;69.38;101172.81;4988652;28;20507;-70
2022/05/25 05:28:31;;;;;;;9.02;2.25;;;;;;;14.67;69.16;101170.91;4973872;28;20055;-69
2022/05/25 05:31:00;;;;;;;4.68;2.17;;;;;;;14.96;69.23;101164.63;4968871;28;20119;-69
2022/05/25 05:33:27;;;;;;;7.05;2.15;;;;;;;15.14;70.35;101163.41;4971684;28;20062;-70
2022/05/25 05:36:09;;;;;;;5.63;2.00;;;;;;;15.31;69.43;101157.78;4970448;28;20059;-69
2022/05/25 05:38:42;;;;;;;6.70;2.20;;;;;;;15.41;68.30;101147.13;4966339;28;20063;-70
2022/05/25 05:41:11;;;;;;;6.40;2.53;;;;;;;15.53;66.33;101149.22;4977735;28;20522;-69
2022/05/25 05:43:38;;;;;;;6.35;2.22;;;;;;;15.59;66.86;101145.91;4986829;28;20442;-71
2022/05/25 05:46:06;;;;;;;6.85;2.28;;;;;;;15.88;66.61;101149.78;4981380;28;20498;-71
2022/05/25 05:48:35;;;;;;;5.93;2.00;;;;;;;16.01;65.95;101141.16;4958938;28;20051;-72
2022/05/25 05:51:04;;;;;;;6.22;1.73;;;;;;;15.95;66.04;101142.53;4976601;28;20525;-71
2022/05/25 05:53:32;;;;;;;6.70;2.17;;;;;;;15.97;66.29;101144.97;4972949;28;20059;-71
2022/05/25 05:56:00;;;;;;;10.75;2.40;;;;;;;16.00;65.75;101147.06;4987692;28;20054;-70
2022/05/25 05:58:28;;;;;;;7.30;2.30;;;;;;;16.05;65.91;101142.13;4974790;28;20065;-70
2022/05/25 06:00:55;;;;;;;7.22;2.00;;;;;;;16.20;65.72;101141.50;4974610;28;20050;-70
2022/05/25 06:03:23;;;;;;;7.13;2.20;;;;;;;16.05;63.62;101147.69;4973434;28;20755;-72
2022/05/25 06:05:50;;;;;;;7.18;2.30;;;;;;;15.47;64.78;101150.53;4984220;28;20042;-69
2022/05/25 06:08:21;;;;;;;9.15;2.42;;;;;;;15.33;68.02;101164.63;4982865;28;20046;-70
2022/05/25 06:10:48;;;;;;;10.20;2.17;;;;;;;15.68;67.71;101160.53;4991779;28;20050;-70
2022/05/25 06:13:16;;;;;;;6.45;1.65;;;;;;;15.58;65.64;101169.28;4974857;28;20062;-70
2022/05/25 06:21:25;;;;;;;6.50;2.28;;;;;;;15.80;66.02;101182.03;4985897;28;20060;-70
2022/05/25 06:23:53;;;;;;;8.15;2.00;;;;;;;15.88;65.96;101183.13;4987046;28;20530;-70
2022/05/25 06:26:21;;;;;;;6.72;2.17;;;;;;;15.93;66.37;101180.13;4983391;28;20043;-71
2022/05/25 06:28:48;;;;;;;8.70;2.33;;;;;;;15.45;64.60;101200.84;4958783;28;20050;-70
2022/05/25 06:31:16;;;;;;;6.55;1.95;;;;;;;15.75;66.84;101205.25;4981404;28;20487;-70
2022/05/25 06:33:43;;;;;;;8.07;2.13;;;;;;;15.64;65.44;101194.84;4966325;28;20638;-68
2022/05/25 06:36:19;;;;;;;5.03;1.75;;;;;;;15.93;65.39;101199.59;4976000;28;20047;-70
2022/05/25 06:38:47;;;;;;;9.38;1.70;;;;;;;15.69;64.53;101198.25;4976616;28;20055;-70
2022/05/25 06:41:15;;;;;;;10.40;2.00;;;;;;;15.57;64.78;101206.50;4967957;28;20050;-70
2022/05/25 06:43:43;;;;;;;10.07;1.90;;;;;;;15.64;65.92;101208.75;4971812;28;20490;-71
2022/05/25 06:46:11;;;;;;;6.55;1.30;;;;;;;16.12;63.55;101213.84;4963922;28;20059;-73
2022/05/25 06:48:55;;;;;;;8.43;1.90;;;;;;;16.31;63.75;101216.94;4965417;28;20055;-72
2022/05/25 06:51:31;;;;;;;6.40;1.52;;;;;;;16.19;61.75;101226.06;4966522;28;20069;-75
2022/05/25 06:54:07;;;;;;;9.65;2.00;;;;;;;16.26;61.94;101222.72;4988129;28;20447;-73
2022/05/25 06:56:35;;;;;;;11.52;1.70;;;;;;;16.31;61.17;101223.34;4972156;28;20153;-73
2022/05/25 06:59:02;;;;;;;5.68;1.52;;;;;;;16.48;61.37;101222.38;4987178;28;20070;-73
2022/05/25 07:01:30;;;;;;;10.20;2.00;;;;;;;16.50;60.81;101228.44;4969352;28;20043;-72
2022/05/25 07:03:57;;;;;;;7.15;1.60;;;;;;;17.08;58.20;101232.94;4968867;28;20378;-72
2022/05/25 07:06:28;;;;;;;6.53;2.00;;;;;;;17.02;57.40;101226.75;4995088;28;20051;-73
2022/05/25 07:08:56;;;;;;;5.85;1.90;;;;;;;16.94;57.34;101229.63;4967026;28;20054;-71
2022/05/25 07:11:24;;;;;;;9.07;2.13;;;;;;;16.88;56.90;101215.94;4981242;28;20047;-73
2022/05/25 07:13:51;;;;;;;6.90;1.77;;;;;;;16.86;56.91;101223.00;4991060;28;20051;-72
2022/05/25 07:16:20;;;;;;;8.25;1.48;;;;;;;16.95;56.21;101229.28;4975518;28;20059;-72
2022/05/25 07:18:48;;;;;;;10.77;1.75;;;;;;;16.88;56.04;101222.69;4980189;28;20057;-73
2022/05/25 07:21:27;;;;;;;9.05;1.48;;;;;;;17.18;54.85;101232.47;4982343;28;20438;-72
2022/05/25 07:23:56;;;;;;;5.38;1.42;;;;;;;17.35;54.28;101247.00;4986761;28;20173;-74
2022/05/25 07:26:25;;;;;;;5.32;1.33;;;;;;;16.58;53.85;101247.03;4967075;28;20055;-71
2022/05/25 07:28:53;;;;;;;6.38;1.13;;;;;;;16.80;54.22;101250.25;4979550;28;20047;-73
2022/05/25 07:31:43;;;;;;;2.83;0.90;;;;;;;16.92;53.47;101265.34;4964677;28;20059;-72
2022/05/25 07:34:30;;;;;;;;;;;;;;;16.93;51.97;101265.00;4989657;28;20566;-72
2022/05/25 07:37:02;;;;;;;6.75;1.30;;;;;;;17.01;51.79;101263.28;4972854;28;20436;-71
2022/05/25 07:39:37;;;;;;;4.55;1.23;;;;;;;17.24;51.10;101259.78;4961658;28;20047;-73
2022/05/25 07:42:05;;;;;;;3.58;1.05;;;;;;;17.65;49.73;101262.41;4998480;28;20062;-73
2022/05/25 07:44:37;;;;;;;7.70;1.15;;;;;;;17.84;49.31;101268.22;4978170;28;20053;-72
2022/05/25 07:47:05;;;;;;;5.32;1.38;;;;;;;17.77;48.39;101269.94;4951376;29;20526;-72
2022/05/25 07:49:32;;;;;;;9.80;1.10;;;;;;;18.19;47.73;101270.50;4974794;28;20053;-73
2022/05/25 07:52:01;;;;;;;4.63;0.80;;;;;;;17.47;48.72;101265.75;4975208;28;20054;-71
2022/05/25 07:54:29;;;;;;;2.55;0.80;;;;;;;17.47;47.83;101274.13;4955407;29;20077;-72
2022/05/25 07:56:57;;;;;;;4.93;0.73;;;;;;;17.91;45.27;101267.63;4972388;28;20054;-69
2022/05/25 07:59:24;;;;;;;3.00;0.98;;;;;;;17.53;46.46;101272.72;4973658;28;20061;-69
2022/05/25 08:07:26;;;;;;;5.38;1.20;;;;;;;17.74;46.53;101276.22;4962207;28;20058;-68
2022/05/25 08:09:59;;;;;;;6.07;1.15;;;;;;;18.35;45.65;101288.94;4979131;28;20043;-68
2022/05/25 08:12:28;;;;;;;4.13;0.80;;;;;;;18.65;46.43;101287.53;4981402;28;20062;-68
2022/05/25 08:14:56;;;;;;;6.10;0.75;;;;;;;18.22;46.27;101280.97;4976461;28;20066;-67
2022/05/25 08:17:23;;;;;;;3.25;1.00;;;;;;;18.16;45.95;101287.94;4992118;28;20058;-67
2022/05/25 08:19:50;;;;;;;14.48;1.48;;;;;;;17.54;48.28;101286.28;4988659;28;20034;-68
2022/05/25 08:22:19;;;;;;;4.57;1.00;;;;;;;17.72;48.02;101296.06;4977779;28;20058;-68
2022/05/25 08:24:46;;;;;;;8.48;1.35;;;;;;;17.36;49.94;101284.03;4950335;28;20513;-69
2022/05/25 08:27:14;;;;;;;3.95;0.90;;;;;;;17.61;49.11;101282.94;4977929;28;20137;-69
2022/05/25 08:29:41;;;;;;;3.95;0.98;;;;;;;17.21;50.90;101270.78;4966006;28;20058;-68
2022/05/25 08:32:09;;;;;;;4.07;0.90;;;;;;;17.01;51.34;101275.25;4978363;28;20053;-68
2022/05/25 08:34:37;;;;;;;4.05;0.95;;;;;;;17.13;51.14;101271.69;4973002;28;20058;-68
2022/05/25 08:37:11;;;;;;;5.32;0.82;;;;;;;17.01;51.65;101271.63;4978197;28;20059;-68
2022/05/25 08:39:38;;;;;;;4.30;1.02;;;;;;;17.63;50.06;101269.47;4972907;28;20047;-67
2022/05/25 08:42:15;;;;;;;8.68;0.80;;;;;;;17.98;49.04;101271.47;4985702;28;20057;-67
2022/05/25 08:44:43;;;;;;;4.18;0.90;;;;;;;17.55;48.81;101276.78;4994665;28;20058;-68
2022/05/25 08:47:12;;;;;;;6.38;2.28;;;;;;;17.65;49.16;101278.28;4969031;28;20039;-67
2022/05/25 08:49:43;;;;;;;4.15;0.80;;;;;;;17.00;46.91;101278.38;4962405;28;20050;-67
2022/05/25 08:52:29;;;;;;;4.70;0.98;;;;;;;16.72;48.31;101289.25;4971450;28;20050;-68
2022/05/25 08:55:02;;;;;;;7.70;0.93;;;;;;;16.85;48.29;101291.78;4979883;28;20055;-68
2022/05/25 08:57:38;;;;;;;5.10;1.40;;;;;;;17.51;48.39;101281.44;4973240;28;20054;-68
2022/05/25 09:00:13;;;;;;;4.80;1.10;;;;;;;17.88;46.86;101282.25;4954419;28;20498;-68
2022/05/25 09:02:47;;;;;;;4.30;1.00;;;;;;;17.48;47.06;101279.34;4977165;28;20059;-68
2022/05/25 09:05:18;;;;;;;2.83;0.82;;;;;;;17.72;46.39;101281.31;4975783;28;20062;-68
2022/05/25 09:08:04;;;;;;;4.03;0.93;;;;;;;17.72;45.30;101290.50;4976316;28;20055;-67
2022/05/25 09:10:39;;;;;;;4.82;1.15;;;;;;;17.82;46.45;101294.78;4991794;28;20054;-67
2022/05/25 09:13:13;;;;;;;2.42;0.80;;;;;;;17.46;45.93;101295.59;4977546;28;20058;-68
2022/05/25 09:18:37;;;;;;;6.32;1.00;;;;;;;18.10;46.50;101287.34;4982842;28;20851;-67
2022/05/25 09:21:05;;;;;;;3.78;1.05;;;;;;;18.20;44.24;101295.22;4945828;28;20055;-67
2022/05/25 09:23:32;;;;;;;2.60;0.80;;;;;;;18.02;43.86;101288.28;4975545;28;20055;-68
2022/05/25 09:26:00;;;;;;;7.07;0.75;;;;;;;18.47;43.63;101285.34;4970008;28;20058;-67
2022/05/25 09:28:36;;;;;;;4.78;0.70;;;;;;;18.65;42.44;101278.31;4977386;28;20054;-69
2022/05/25 09:31:05;;;;;;;5.03;0.85;;;;;;;18.44;43.33;101272.94;4990634;28;20058;-70
2022/05/25 09:33:40;;;;;;;5.50;0.70;;;;;;;18.69;43.82;101279.25;5000783;28;20047;-68
2022/05/25 09:36:11;;;;;;;4.72;1.02;;;;;;;18.96;42.04;101282.03;4954568;28;20054;-70
2022/05/25 09:39:01;;;;;;;2.00;0.77;;;;;;;19.09;42.23;101272.41;4991372;28;20533;-68
2022/05/25 09:41:31;;;;;;;5.03;0.98;;;;;;;18.95;42.56;101299.94;4975731;28;20058;-69
2022/05/25 09:44:01;;;;;;;4.47;0.98;;;;;;;18.80;41.96;101286.75;4992454;28;20055;-70
2022/05/25 09:46:37;;;;;;;3.40;0.70;;;;;;;18.79;41.51;101287.91;4955946;28;20055;-69
2022/05/25 09:49:07;;;;;;;4.20;0.80;;;;;;;18.71;42.70;101291.66;4946185;28;20046;-67
2022/05/25 09:51:46;;;;;;;6.13;0.80;;;;;;;18.87;42.20;101275.78;4991597;28;20437;-69
2022/05/25 09:54:24;;;;;;;4.90;0.90;;;;;;;19.07;41.53;101285.91;4962786;28;20414;-69
2022/05/25 09:56:55;;;;;;;3.67;0.70;;;;;;;19.08;41.99;101287.56;4991123;28;20519;-68
2022/05/25 09:59:32;;;;;;;3.50;0.85;;;;;;;18.94;41.26;101291.94;4959775;28;20043;-68
2022/05/25 10:02:00;;;;;;;4.47;0.80;;;;;;;18.99;41.21;101294.47;4977521;28;20053;-67
2022/05/25 10:04:52;;;;;;;4.65;0.95;;;;;;;19.07;42.54;101304.69;4967331;28;20066;-68
2022/05/25 10:07:35;;;;;;;3.22;0.80;;;;;;;18.83;42.92;101291.63;4970353;28;20055;-67
2022/05/25 10:10:11;;;;;;;4.80;0.70;;;;;;;18.92;43.79;101289.50;4990772;28;20505;-67
2022/05/25 10:12:38;;;;;;;2.47;0.60;;;;;;;18.51;41.78;101289.88;4994208;28;20043;-67
2022/05/25 10:15:27;;;;;;;2.95;1.13;;;;;;;18.47;43.26;101283.38;4978521;28;20047;-68
2022/05/25 10:17:54;;;;;;;3.88;0.90;;;;;;;18.43;42.85;101290.81;4974579;28;20051;-68
2022/05/25 10:20:25;;;;;;;4.03;1.10;;;;;;;17.73;44.05;101300.47;4976843;28;20160;-69
2022/05/25 10:23:01;;;;;;;4.28;1.10;;;;;;;17.85;45.55;101299.69;4971973;28;20526;-69
2022/05/25 10:25:40;;;;;;;4.22;1.05;;;;;;;18.27;44.31;101303.81;4974373;28;20050;-66
2022/05/25 10:28:24;;;;;;;7.22;1.15;;;;;;;18.57;43.44;101299.63;4976204;28;20396;-64
2022/05/25 10:37:06;;;;;;;4.30;1.35;;;;;;;19.27;41.79;101309.22;4907704;29;20052;-66
2022/05/25 10:39:57;;;;;;;7.07;2.20;;;;;;;18.50;42.59;101298.56;4953559;28;20055;-64
2022/05/25 10:42:44;;;;;;;5.88;2.20;;;;;;;18.71;44.37;101293.63;4951781;28;20498;-64
2022/05/25 10:45:15;;;;;;;4.70;1.40;;;;;;;18.82;42.91;101289.19;4978853;28;20142;-65
2022/05/25 10:47:46;;;;;;;3.00;1.33;;;;;;;18.99;43.78;101288.88;4965578;28;20390;-68
2022/05/25 10:50:16;;;;;;;12.88;6.20;;;;;;;19.15;41.75;101295.31;4971037;28;20470;-66
2022/05/25 10:52:59;;;;;;;20.13;12.05;;;;;;;18.92;42.43;101302.63;4958473;28;20047;-66
2022/05/25 10:55:44;;;;;;;9.35;5.55;;;;;;;18.96;40.77;101289.59;4944273;28;20513;-65
2022/05/25 10:58:15;;;;;;;9.95;3.50;;;;;;;18.37;42.23;101291.38;4958307;28;20054;-65
2022/05/25 11:00:46;;;;;;;9.50;4.38;;;;;;;18.56;41.27;101278.47;4969032;28;20043;-65
2022/05/25 11:03:51;;;;;;;15.98;6.38;;;;;;;18.43;41.57;101281.66;4977335;28;20059;-67
2022/05/25 11:06:45;;;;;;;5.10;1.63;;;;;;;18.55;42.17;101290.00;4945205;28;20065;-65
2022/05/25 11:09:23;;;;;;;3.15;1.17;;;;;;;18.80;42.01;101297.09;4969848;28;20058;-66
2022/05/25 11:12:05;;;;;;;4.70;0.90;;;;;;;18.81;42.13;101291.16;4974476;28;20097;-66
2022/05/25 11:14:36;;;;;;;4.57;1.83;;;;;;;18.81;41.71;101296.75;4972116;28;20058;-65
2022/05/25 11:17:41;;;;;;;4.88;1.38;;;;;;;19.02;41.53;101299.34;4967712;28;20058;-65
2022/05/25 11:20:20;;;;;;;3.35;1.38;;;;;;;19.21;40.27;101290.28;4968169;28;20656;-67
2022/05/25 11:22:58;;;;;;;4.05;1.02;;;;;;;19.29;40.41;101280.91;4964236;28;20051;-65
2022/05/25 11:25:41;;;;;;;4.07;1.23;;;;;;;19.21;40.42;101285.53;4976373;28;20189;-64
2022/05/25 11:28:30;;;;;;;7.90;1.67;;;;;;;19.16;40.08;101296.94;4973389;28;20055;-65
2022/05/25 11:31:22;;;;;;;3.63;0.85;;;;;;;19.30;40.61;101282.56;4977596;28;20055;-65
2022/05/25 11:33:54;;;;;;;3.42;1.13;;;;;;;19.22;40.08;101289.94;4989639;28;20387;-65
2022/05/25 11:37:07;;;;;;;3.83;1.05;;;;;;;19.21;40.58;101302.28;4964061;28;20065;-65
2022/05/25 11:39:56;;;;;;;8.15;1.40;;;;;;;19.06;40.75;101295.47;4969250;28;20419;-65
2022/05/25 11:43:02;;;;;;;7.38;1.88;;;;;;;19.58;40.99;101292.50;4961749;28;20059;-65
2022/05/25 11:45:53;;;;;;;9.93;1.40;;;;;;;19.92;38.89;101283.41;4952630;28;20067;-65
2022/05/25 11:48:47;;;;;;;7.75;1.05;;;;;;;19.98;39.24;101276.34;4951394;28;20059;-67
2022/05/25 11:51:20;;;;;;;7.32;1.13;;;;;;;19.63;39.36;101289.44;4951414;28;20478;-66
2022/05/25 11:53:51;;;;;;;4.57;1.10;;;;;;;19.54;39.26;101283.25;4952918;28;20063;-68
2022/05/25 11:56:50;;;;;;;4.97;2.60;;;;;;;19.59;39.95;101282.16;4961255;28;20066;-67
2022/05/25 11:59:48;;;;;;;5.50;1.88;;;;;;;20.11;38.92;101279.84;4947806;28;20081;-68
2022/05/25 12:02:57;;;;;;;3.78;1.50;;;;;;;20.33;39.19;101278.41;4945725;28;20043;-65
2022/05/25 12:05:49;;;;;;;8.25;2.00;;;;;;;20.66;39.22;101273.94;4910911;29;20132;-66
2022/05/25 12:08:31;;;;;;;6.40;1.42;;;;;;;20.81;38.64;101280.66;4960711;28;20061;-63
2022/05/25 12:11:37;;;;;;;8.57;1.70;;;;;;;20.82;37.94;101274.66;4959079;28;20043;-66
2022/05/25 12:14:31;;;;;;;4.90;1.30;;;;;;;20.78;37.39;101282.19;4950842;28;20066;-64
2022/05/25 12:17:07;;;;;;;4.63;0.75;;;;;;;20.12;37.44;101287.06;4957371;28;20058;-64
2022/05/25 12:19:35;;;;;;;3.05;0.73;;;;;;;20.25;38.25;101285.00;4958232;28;20047;-64